Time;durP1;ratioP1;P1;durP2;ratioP2;P2;SDS_P1;SDS_P2;PMS_P1;PMS_P2;Temp;Humidity;BMP_temperature;BMP_pressure;BME280_temperature;BME280_humidity;BME280_pressure;Samples;Min_cycle;Max_cycle;Signal;HPM_P1;HPM_P2
2024/01/05 00:03:11;;;;;;;5.70;2.90;;;;;;;1.78;95.86;99451.11;182514;1235;46148;-87
2024/01/05 00:07:14;;;;;;;3.00;2.70;;;;;;;1.82;95.34;99469.26;183081;1235;45951;-88
2024/01/05 00:11:18;;;;;;;2.80;1.80;;;;;;;1.92;95.59;99470.94;183572;1231;45997;-87
2024/01/05 00:15:20;;;;;;;3.70;2.70;;;;;;;1.96;95.85;99479.95;182862;1231;59189;-88
2024/01/05 00:19:25;;;;;;;4.20;2.60;;;;;;;2.00;95.91;99475.38;183503;1231;44332;-87
2024/01/05 00:23:30;;;;;;;6.90;2.20;;;;;;;2.05;97.34;99472.81;183212;1231;46015;-86
2024/01/05 00:27:33;;;;;;;1.50;1.10;;;;;;;2.07;97.75;99472.88;183046;1232;46119;-88
2024/01/05 00:31:35;;;;;;;3.40;3.10;;;;;;;2.11;98.01;99461.94;183174;1235;46128;-87
2024/01/05 00:35:38;;;;;;;3.10;2.40;;;;;;;2.09;98.27;99465.86;184374;1231;59107;-87
2024/01/05 00:39:41;;;;;;;2.90;2.00;;;;;;;2.14;98.31;99470.00;183653;1231;46009;-87
2024/01/05 00:43:43;;;;;;;2.40;2.20;;;;;;;2.20;98.30;99466.67;182672;1236;46477;-88
2024/01/05 00:47:45;;;;;;;3.60;2.30;;;;;;;2.31;98.25;99476.35;183473;1232;45943;-87
2024/01/05 00:51:48;;;;;;;3.80;1.70;;;;;;;2.41;98.27;99477.62;183113;1232;46099;-88
2024/01/05 00:55:51;;;;;;;2.10;1.30;;;;;;;2.51;98.04;99479.88;183421;1231;57774;-88
2024/01/05 00:59:53;;;;;;;2.90;2.10;;;;;;;2.58;97.64;99484.52;184782;1231;46036;-88
2024/01/05 01:03:57;;;;;;;4.20;3.40;;;;;;;2.64;97.42;99482.73;183193;1231;46016;-88
2024/01/05 01:08:00;;;;;;;3.40;2.40;;;;;;;2.55;96.64;99476.82;183503;1236;45969;-87
2024/01/05 01:12:04;;;;;;;2.70;1.40;;;;;;;2.47;96.21;99480.27;183458;1231;45935;-89
2024/01/05 01:16:06;;;;;;;2.80;1.90;;;;;;;2.40;96.28;99481.23;182515;1231;59260;-87
2024/01/05 01:20:08;;;;;;;6.90;3.00;;;;;;;2.40;96.10;99486.47;182368;1235;46440;-87
2024/01/05 01:24:10;;;;;;;7.40;1.90;;;;;;;2.41;95.92;99481.33;183103;1235;46091;-87
2024/01/05 01:28:13;;;;;;;5.00;3.80;;;;;;;2.40;95.23;99484.35;183123;1231;46079;-88
2024/01/05 01:32:15;;;;;;;5.60;4.70;;;;;;;2.46;95.16;99477.70;182787;1231;46118;-88
2024/01/05 01:36:17;;;;;;;11.60;3.20;;;;;;;2.48;93.86;99484.23;183129;1234;59217;-89
2024/01/05 01:40:20;;;;;;;5.70;3.50;;;;;;;2.47;93.22;99487.98;182823;1231;46520;-87
2024/01/05 01:44:25;;;;;;;6.90;3.40;;;;;;;2.44;93.24;99496.21;183260;1231;45898;-88
2024/01/05 01:48:29;;;;;;;5.10;3.40;;;;;;;2.44;93.87;99500.94;183384;1236;45980;-88
2024/01/05 01:52:34;;;;;;;5.70;4.20;;;;;;;2.39;94.55;99497.02;183454;1235;46060;-89
2024/01/05 01:56:38;;;;;;;7.10;4.90;;;;;;;2.38;94.41;99498.84;183111;1233;59686;-88
2024/01/05 02:00:45;;;;;;;8.20;4.40;;;;;;;2.40;94.45;99496.11;182699;1231;46613;-88
2024/01/05 02:04:48;;;;;;;11.80;5.70;;;;;;;2.41;93.96;99492.16;183422;1235;44702;-88
2024/01/05 02:08:51;;;;;;;8.30;4.90;;;;;;;2.47;94.66;99486.05;183230;1231;44681;-88
2024/01/05 02:12:56;;;;;;;2.50;2.30;;;;;;;2.50;95.24;99477.13;183629;1235;45976;-88
2024/01/05 02:17:00;;;;;;;2.40;2.00;;;;;;;2.53;95.38;99477.98;182970;1231;58004;-88
2024/01/05 02:21:06;;;;;;;3.50;2.00;;;;;;;2.59;96.14;99481.52;183023;1232;46144;-87
2024/01/05 02:25:08;;;;;;;2.20;1.40;;;;;;;2.66;96.58;99481.02;182782;1231;46161;-88
2024/01/05 02:29:10;;;;;;;2.50;2.30;;;;;;;2.79;94.70;99475.36;183228;1231;45999;-87
2024/01/05 02:33:13;;;;;;;2.50;1.50;;;;;;;2.97;95.18;99476.85;182826;1231;46171;-88
2024/01/05 02:37:17;;;;;;;2.90;2.50;;;;;;;3.15;94.21;99478.55;182997;1235;59167;-88
2024/01/05 02:41:20;;;;;;;5.40;2.00;;;;;;;3.27;93.82;99483.89;183275;1231;46155;-88
2024/01/05 02:45:24;;;;;;;5.40;2.50;;;;;;;3.30;92.34;99487.58;182659;1231;45976;-89
2024/01/05 02:49:27;;;;;;;3.40;1.90;;;;;;;3.30;94.17;99482.29;183850;1234;45957;-88
2024/01/05 02:53:29;;;;;;;1.80;1.60;;;;;;;3.38;94.23;99482.83;183012;1232;46077;-88
2024/01/05 02:57:31;;;;;;;6.10;2.50;;;;;;;3.46;92.81;99468.84;183364;1236;58667;-89
2024/01/05 03:01:35;;;;;;;3.00;2.60;;;;;;;3.46;91.44;99469.05;182878;1231;46558;-88
2024/01/05 03:05:40;;;;;;;3.00;2.00;;;;;;;3.47;91.09;99466.16;183936;1231;45704;-89
2024/01/05 03:09:42;;;;;;;3.30;2.10;;;;;;;3.45;90.56;99465.41;183774;1235;46068;-88
2024/01/05 03:13:46;;;;;;;2.50;2.30;;;;;;;3.45;90.95;99458.59;183448;1231;44664;-88
2024/01/05 03:17:48;;;;;;;2.80;2.00;;;;;;;3.34;91.82;99465.23;183490;1232;58166;-88
2024/01/05 03:21:51;;;;;;;15.80;2.80;;;;;;;3.10;93.57;99476.73;183065;1235;46103;-88
2024/01/05 03:25:53;;;;;;;5.00;2.50;;;;;;;3.01;94.73;99473.29;183863;1231;46092;-88
2024/01/05 03:29:56;;;;;;;3.00;1.90;;;;;;;3.05;94.54;99462.16;183003;1231;45960;-88
2024/01/05 03:33:59;;;;;;;3.10;2.80;;;;;;;2.97;95.17;99467.20;182863;1235;46092;-88
2024/01/05 03:38:02;;;;;;;3.40;2.30;;;;;;;2.97;95.43;99455.80;183520;1231;58833;-88
2024/01/05 03:42:05;;;;;;;5.50;2.80;;;;;;;2.98;94.31;99456.14;183313;1235;46386;-88
2024/01/05 03:46:11;;;;;;;7.20;2.60;;;;;;;2.86;94.38;99453.20;182993;1236;45976;-88
2024/01/05 03:50:13;;;;;;;2.50;2.30;;;;;;;2.77;94.63;99450.64;183179;1232;46071;-88
2024/01/05 03:54:17;;;;;;;1.60;1.20;;;;;;;2.65;94.01;99454.86;183419;1231;45160;-88
2024/01/05 03:58:19;;;;;;;3.90;1.60;;;;;;;2.53;94.43;99465.40;183254;1232;58006;-87
2024/01/05 04:02:21;;;;;;;2.60;1.60;;;;;;;2.45;94.63;99472.89;182928;1232;46427;-88
2024/01/05 04:06:23;;;;;;;10.40;2.00;;;;;;;2.42;96.11;99484.02;184057;1232;46038;-88
2024/01/05 04:10:26;;;;;;;2.60;2.00;;;;;;;2.46;95.11;99484.16;183282;1237;46028;-88
2024/01/05 04:14:28;;;;;;;1.40;1.30;;;;;;;2.56;94.94;99475.34;184656;1232;44025;-87
2024/01/05 04:18:30;;;;;;;2.60;1.70;;;;;;;2.54;94.31;99467.23;183952;1232;58082;-86
2024/01/05 04:22:33;;;;;;;2.20;1.40;;;;;;;2.51;95.03;99463.43;185969;1232;43749;-87
2024/01/05 04:26:35;;;;;;;3.40;2.30;;;;;;;2.54;95.32;99468.98;186053;1236;44074;-87
2024/01/05 04:30:37;;;;;;;2.80;2.60;;;;;;;2.57;95.77;99485.62;184463;1233;46121;-87
2024/01/05 04:34:40;;;;;;;3.70;2.20;;;;;;;2.61;95.52;99483.61;182921;1232;46074;-86
2024/01/05 04:38:42;;;;;;;2.40;1.30;;;;;;;2.60;95.18;99477.38;185466;1231;58278;-87
2024/01/05 04:42:45;;;;;;;4.30;2.40;;;;;;;2.61;94.68;99480.10;184184;1232;46074;-88
2024/01/05 04:46:47;;;;;;;4.20;2.90;;;;;;;2.69;93.64;99475.40;184764;1231;46192;-86
2024/01/05 04:50:49;;;;;;;5.90;1.80;;;;;;;2.77;92.93;99474.28;185322;1232;46077;-87
2024/01/05 04:54:52;;;;;;;6.30;4.60;;;;;;;2.74;93.04;99460.93;185901;1231;43975;-87
2024/01/05 04:58:54;;;;;;;10.20;5.20;;;;;;;2.71;93.89;99465.69;184275;1232;59882;-87
2024/01/05 05:02:56;;;;;;;3.60;3.00;;;;;;;2.74;95.01;99467.63;183996;1235;44002;-87
2024/01/05 05:06:59;;;;;;;11.50;4.10;;;;;;;2.70;94.34;99461.88;184355;1232;46090;-87
2024/01/05 05:11:02;;;;;;;10.90;6.50;;;;;;;2.73;94.17;99468.02;183491;1233;46509;-86
2024/01/05 05:15:04;;;;;;;15.20;9.80;;;;;;;2.72;93.67;99470.50;184375;1235;46003;-87
2024/01/05 05:19:06;;;;;;;11.20;7.60;;;;;;;2.67;93.05;99466.25;183464;1231;58683;-86
2024/01/05 05:23:09;;;;;;;9.00;7.00;;;;;;;2.65;93.82;99463.09;183829;1231;46611;-88
2024/01/05 05:27:12;;;;;;;8.50;4.70;;;;;;;2.63;93.66;99455.33;183121;1232;45966;-88
2024/01/05 05:31:15;;;;;;;5.50;3.80;;;;;;;2.61;93.77;99449.53;183584;1231;46090;-87
2024/01/05 05:35:17;;;;;;;17.20;12.10;;;;;;;2.59;94.33;99444.73;184940;1234;46510;-88
2024/01/05 05:39:20;;;;;;;18.40;10.50;;;;;;;2.54;95.22;99441.33;182964;1235;57989;-88
2024/01/05 05:43:23;;;;;;;10.20;5.30;;;;;;;2.52;96.05;99431.14;184738;1235;46208;-87
2024/01/05 05:47:26;;;;;;;7.30;3.90;;;;;;;2.52;97.15;99415.40;183725;1232;45968;-88
2024/01/05 05:51:28;;;;;;;4.10;3.20;;;;;;;2.44;98.42;99415.17;183170;1233;46065;-87
2024/01/05 05:55:31;;;;;;;6.90;2.50;;;;;;;2.22;100.00;99407.05;182778;1232;46103;-86
2024/01/05 05:59:33;;;;;;;4.40;2.80;;;;;;;2.05;100.00;99405.08;183148;1235;57195;-88
2024/01/05 06:03:35;;;;;;;5.00;2.70;;;;;;;2.01;100.00;99405.88;183032;1233;45992;-88
2024/01/05 06:07:38;;;;;;;5.00;2.10;;;;;;;1.91;100.00;99397.40;184222;1232;46062;-88
2024/01/05 06:11:40;;;;;;;5.10;2.20;;;;;;;1.73;100.00;99404.04;184676;1236;44713;-88
2024/01/05 06:15:43;;;;;;;2.30;2.10;;;;;;;1.77;100.00;99406.39;182962;1232;45956;-88
2024/01/05 06:19:46;;;;;;;3.10;2.10;;;;;;;1.92;100.00;99408.52;183573;1235;59192;-88
2024/01/05 06:23:48;;;;;;;3.30;2.00;;;;;;;1.98;100.00;99411.45;183034;1232;46049;-88
2024/01/05 06:27:52;;;;;;;4.30;2.60;;;;;;;2.01;100.00;99412.55;183617;1232;46086;-88
2024/01/05 06:31:55;;;;;;;3.00;2.60;;;;;;;2.02;100.00;99412.63;183958;1232;45886;-88
2024/01/05 06:35:57;;;;;;;7.30;3.60;;;;;;;2.04;100.00;99419.89;183664;1232;46004;-88
2024/01/05 06:39:59;;;;;;;6.90;3.70;;;;;;;2.07;100.00;99411.30;183169;1232;57878;-89
2024/01/05 06:44:02;;;;;;;4.10;2.80;;;;;;;2.12;100.00;99408.38;183228;1232;46096;-88
2024/01/05 06:48:05;;;;;;;8.20;5.00;;;;;;;2.11;100.00;99405.46;182766;1232;46153;-88
2024/01/05 06:52:08;;;;;;;8.00;3.40;;;;;;;2.10;100.00;99401.64;183897;1237;46182;-88
2024/01/05 06:56:11;;;;;;;6.80;4.70;;;;;;;2.06;100.00;99399.65;183485;1231;46068;-88
2024/01/05 07:00:14;;;;;;;6.30;4.90;;;;;;;2.04;100.00;99406.61;184764;1232;57798;-88
2024/01/05 07:04:17;;;;;;;4.80;4.00;;;;;;;2.07;100.00;99405.52;183436;1232;45985;-89
2024/01/05 07:08:21;;;;;;;6.90;4.60;;;;;;;2.08;100.00;99399.33;185467;1235;45997;-88
2024/01/05 07:12:24;;;;;;;9.40;4.00;;;;;;;2.12;100.00;99400.34;184198;1232;46229;-89
2024/01/05 07:16:27;;;;;;;3.00;2.70;;;;;;;2.09;100.00;99396.31;184514;1232;46109;-88
2024/01/05 07:20:29;;;;;;;5.30;3.30;;;;;;;2.13;100.00;99389.20;184324;1231;59831;-89
2024/01/05 07:24:37;;;;;;;9.40;4.50;;;;;;;2.13;100.00;99398.84;183622;1236;45994;-89
2024/01/05 07:28:40;;;;;;;4.30;3.00;;;;;;;2.16;100.00;99406.92;185263;1232;45947;-88
2024/01/05 07:32:44;;;;;;;18.00;14.30;;;;;;;2.21;100.00;99412.90;184356;1232;45991;-88
2024/01/05 07:36:47;;;;;;;89.30;80.30;;;;;;;2.29;100.00;99398.78;183412;1232;46074;-89
2024/01/05 07:40:49;;;;;;;17.30;15.30;;;;;;;2.32;100.00;99398.40;182514;1232;56992;-87
2024/01/05 07:44:51;;;;;;;10.40;7.10;;;;;;;2.30;100.00;99406.73;182524;1232;46084;-89
2024/01/05 07:48:54;;;;;;;9.30;7.40;;;;;;;2.30;100.00;99402.70;183027;1232;46169;-88
2024/01/05 07:52:57;;;;;;;9.20;6.60;;;;;;;2.22;100.00;99397.79;182856;1232;45998;-88
2024/01/05 07:56:59;;;;;;;5.80;3.80;;;;;;;2.15;100.00;99400.63;183772;1231;45958;-89
2024/01/05 08:01:02;;;;;;;7.60;6.20;;;;;;;2.23;100.00;99398.63;184039;1232;59207;-88
2024/01/05 08:05:05;;;;;;;11.90;7.90;;;;;;;2.28;100.00;99394.48;184358;1232;46119;-88
2024/01/05 08:09:09;;;;;;;7.30;6.10;;;;;;;2.31;100.00;99387.44;183762;1232;46082;-88
2024/01/05 08:13:12;;;;;;;9.10;6.90;;;;;;;2.38;100.00;99382.31;184759;1232;45998;-89
2024/01/05 08:17:15;;;;;;;10.50;7.70;;;;;;;2.43;100.00;99378.83;182979;1231;46109;-88
2024/01/05 08:21:18;;;;;;;8.50;6.40;;;;;;;2.49;100.00;99379.52;183042;1231;59259;-88
2024/01/05 08:25:22;;;;;;;12.90;7.10;;;;;;;2.58;100.00;99387.86;183262;1232;46566;-89
2024/01/05 08:29:26;;;;;;;10.40;7.40;;;;;;;2.71;100.00;99387.06;183865;1232;45970;-88
2024/01/05 08:33:29;;;;;;;13.50;9.30;;;;;;;2.76;100.00;99377.34;185220;1233;45975;-88
2024/01/05 08:37:32;;;;;;;11.30;7.40;;;;;;;2.77;100.00;99362.91;183899;1231;44788;-89
2024/01/05 08:41:38;;;;;;;12.70;7.80;;;;;;;2.84;100.00;99353.02;183018;1231;60074;-89
2024/01/05 08:45:40;;;;;;;12.50;8.40;;;;;;;2.89;100.00;99361.77;183068;1232;45949;-89
2024/01/05 08:49:43;;;;;;;11.10;7.40;;;;;;;2.92;100.00;99368.44;184248;1231;46090;-88
2024/01/05 08:53:46;;;;;;;10.60;6.80;;;;;;;2.97;100.00;99376.80;185264;1231;44684;-88
2024/01/05 08:57:49;;;;;;;10.80;7.20;;;;;;;3.01;100.00;99367.65;184438;1231;46177;-88
2024/01/05 09:01:51;;;;;;;11.80;6.20;;;;;;;3.06;100.00;99370.14;183163;1232;59304;-89
2024/01/05 09:05:54;;;;;;;11.50;8.60;;;;;;;3.04;100.00;99374.30;182801;1232;46170;-89
2024/01/05 09:09:56;;;;;;;12.70;7.50;;;;;;;3.09;100.00;99385.33;183574;1231;46298;-89
2024/01/05 09:13:59;;;;;;;34.00;17.20;;;;;;;3.21;100.00;99395.80;182394;1232;46072;-89
2024/01/05 09:18:02;;;;;;;47.20;23.70;;;;;;;3.31;100.00;99401.64;182786;1235;46011;-89
2024/01/05 09:22:07;;;;;;;40.10;18.90;;;;;;;3.35;100.00;99408.56;182455;1231;59028;-89
2024/01/05 09:26:14;;;;;;;50.90;25.50;;;;;;;3.35;100.00;99411.40;182949;1231;46093;-89
2024/01/05 09:30:16;;;;;;;27.60;19.90;;;;;;;3.35;100.00;99407.34;183805;1232;46052;-88
2024/01/05 09:34:19;;;;;;;37.30;19.00;;;;;;;3.36;100.00;99408.69;183121;1231;45963;-88
2024/01/05 09:38:22;;;;;;;29.10;18.00;;;;;;;3.34;100.00;99412.29;184265;1232;45883;-88
2024/01/05 09:42:26;;;;;;;23.90;16.10;;;;;;;3.39;100.00;99414.95;184048;1231;58403;-88
2024/01/05 09:46:29;;;;;;;17.00;9.90;;;;;;;3.50;100.00;99412.32;183594;1231;46077;-88
2024/01/05 09:50:31;;;;;;;39.20;23.30;;;;;;;3.60;100.00;99407.42;183159;1231;46193;-89
2024/01/05 09:54:34;;;;;;;29.70;17.20;;;;;;;3.75;100.00;99405.72;183198;1231;45983;-88
2024/01/05 09:58:37;;;;;;;38.00;21.30;;;;;;;3.81;100.00;99406.91;184424;1231;44628;-88
2024/01/05 10:02:50;;;;;;;22.10;12.90;;;;;;;3.79;100.00;99401.28;183597;1231;58124;-88
2024/01/05 10:07:03;;;;;;;17.80;12.80;;;;;;;3.76;100.00;99400.05;183238;1231;46416;-88
2024/01/05 10:11:07;;;;;;;20.50;13.30;;;;;;;3.73;100.00;99397.66;183392;1232;161979;-88
2024/01/05 10:15:11;;;;;;;15.80;10.00;;;;;;;3.68;100.00;99392.38;183181;1232;46180;-87
2024/01/05 10:19:20;;;;;;;15.50;8.70;;;;;;;3.68;100.00;99389.52;182981;1231;44047;-88
2024/01/05 10:23:23;;;;;;;10.00;7.20;;;;;;;3.70;100.00;99389.24;183848;1232;59289;-89
2024/01/05 10:27:27;;;;;;;12.90;8.00;;;;;;;3.72;100.00;99381.02;183844;1231;46033;-89
2024/01/05 10:31:31;;;;;;;10.50;6.60;;;;;;;3.70;100.00;99363.42;183244;1232;46166;-90
2024/01/05 10:35:35;;;;;;;8.50;6.00;;;;;;;3.69;100.00;99353.21;183088;1231;45998;-89
2024/01/05 10:39:39;;;;;;;9.90;7.70;;;;;;;3.60;100.00;99346.42;182811;1231;46074;-89
2024/01/05 10:43:41;;;;;;;13.60;10.70;;;;;;;3.62;100.00;99343.86;182939;1235;59224;-89
2024/01/05 10:47:44;;;;;;;9.40;6.60;;;;;;;3.68;100.00;99336.95;183512;1231;44628;-90
2024/01/05 10:51:51;;;;;;;16.50;9.30;;;;;;;3.76;100.00;99327.67;183779;1231;44053;-90
2024/01/05 10:55:56;;;;;;;15.80;9.80;;;;;;;3.78;100.00;99325.55;182885;1231;45992;-90
2024/01/05 10:59:59;;;;;;;14.30;9.30;;;;;;;3.80;100.00;99324.92;185029;1231;45998;-89
2024/01/05 11:04:03;;;;;;;16.80;11.80;;;;;;;3.83;100.00;99326.11;184325;1235;56952;-90
2024/01/05 11:08:23;;;;;;;16.90;9.30;;;;;;;3.88;100.00;99322.78;183217;1232;46001;-89
2024/01/05 11:12:44;;;;;;;16.70;10.00;;;;;;;3.94;100.00;99320.48;183426;1231;45967;-90
2024/01/05 11:17:09;;;;;;;11.90;7.90;;;;;;;3.99;100.00;99318.34;184947;1231;45970;-90
2024/01/05 11:21:17;;;;;;;13.20;9.00;;;;;;;4.01;100.00;99306.27;183085;1235;46200;-90
2024/01/05 11:25:20;;;;;;;13.70;7.60;;;;;;;4.08;100.00;99302.11;183076;1235;58937;-89
2024/01/05 11:29:50;;;;;;;12.10;8.40;;;;;;;4.15;100.00;99293.38;183016;1236;45985;-89
2024/01/05 11:33:52;;;;;;;10.60;8.60;;;;;;;4.18;100.00;99287.94;183603;1234;45979;-89
2024/01/05 11:37:58;;;;;;;12.10;8.20;;;;;;;4.17;100.00;99286.05;182920;1235;46093;-89
2024/01/05 11:42:00;;;;;;;18.90;10.70;;;;;;;4.19;100.00;99279.98;182414;1238;45969;-89
2024/01/05 11:46:04;;;;;;;11.80;8.70;;;;;;;4.15;100.00;99269.49;182478;1236;60223;-89
2024/01/05 11:50:35;;;;;;;17.60;11.90;;;;;;;4.19;100.00;99272.25;182922;1235;44615;-88
2024/01/05 11:54:38;;;;;;;15.70;10.20;;;;;;;4.23;100.00;99271.06;184229;1231;46193;-88
2024/01/05 11:58:43;;;;;;;15.10;9.70;;;;;;;4.32;100.00;99262.33;182778;1231;45971;-89
2024/01/05 12:02:45;;;;;;;15.80;10.60;;;;;;;4.43;100.00;99257.86;183116;1235;46197;-88
2024/01/05 12:06:54;;;;;;;11.30;8.20;;;;;;;4.48;100.00;99251.90;182525;1231;60273;-89
2024/01/05 12:11:00;;;;;;;18.30;11.60;;;;;;;4.51;100.00;99247.80;183255;1231;45969;-90
2024/01/05 12:15:10;;;;;;;15.40;12.40;;;;;;;4.49;100.00;99236.19;183389;1231;45897;-89
2024/01/05 12:19:21;;;;;;;15.90;11.00;;;;;;;4.47;100.00;99234.73;184652;1231;45956;-89
2024/01/05 12:23:25;;;;;;;29.30;19.50;;;;;;;4.50;100.00;99230.48;184498;1231;44077;-89
2024/01/05 12:27:39;;;;;;;34.20;23.30;;;;;;;4.53;100.00;99222.23;183649;1234;58793;-88
2024/01/05 12:31:43;;;;;;;32.50;28.60;;;;;;;4.54;100.00;99209.98;183975;1231;46506;-89
2024/01/05 12:35:48;;;;;;;21.70;14.60;;;;;;;4.46;100.00;99206.16;183502;1232;45995;-88
2024/01/05 12:39:51;;;;;;;24.50;13.20;;;;;;;4.42;100.00;99196.64;183195;1233;45900;-88
2024/01/05 12:43:54;;;;;;;14.80;11.80;;;;;;;4.42;100.00;99193.34;184189;1231;46163;-88
2024/01/05 12:47:57;;;;;;;17.20;10.50;;;;;;;4.36;100.00;99195.50;182873;1231;57371;-89
2024/01/05 12:51:59;;;;;;;15.80;11.40;;;;;;;4.37;100.00;99190.68;183622;1231;45992;-89
2024/01/05 12:56:20;;;;;;;18.80;11.50;;;;;;;4.43;100.00;99180.96;183137;1231;46078;-89
2024/01/05 13:00:22;;;;;;;18.30;12.40;;;;;;;4.44;100.00;99179.31;182803;1232;46061;-88
2024/01/05 13:04:34;;;;;;;18.00;12.80;;;;;;;4.46;100.00;99178.10;183391;1231;45913;-89
2024/01/05 13:08:43;;;;;;;17.70;13.10;;;;;;;4.49;100.00;99186.13;184630;1231;59376;-89
2024/01/05 13:12:47;;;;;;;19.60;14.00;;;;;;;4.48;100.00;99182.75;182792;1231;45995;-88
2024/01/05 13:16:49;;;;;;;25.90;15.20;;;;;;;4.45;100.00;99182.22;183541;1235;46055;-89
2024/01/05 13:20:53;;;;;;;26.80;17.30;;;;;;;4.42;100.00;99186.11;183506;1232;45948;-89
2024/01/05 13:24:55;;;;;;;29.80;20.70;;;;;;;4.40;100.00;99191.66;184282;1231;46002;-89
2024/01/05 13:28:57;;;;;;;26.50;18.10;;;;;;;4.41;100.00;99181.58;183345;1235;59725;-89
2024/01/05 13:33:00;;;;;;;21.90;15.60;;;;;;;4.37;100.00;99181.77;182825;1231;45941;-88
2024/01/05 13:37:03;;;;;;;26.60;17.00;;;;;;;4.40;100.00;99182.22;183748;1231;45928;-89
2024/01/05 13:41:06;;;;;;;24.30;15.80;;;;;;;4.44;100.00;99176.33;183963;1235;45957;-89
2024/01/05 13:45:08;;;;;;;28.40;18.10;;;;;;;4.41;100.00;99181.46;183356;1236;46046;-87
2024/01/05 13:49:10;;;;;;;28.10;17.50;;;;;;;4.38;100.00;99179.89;183063;1235;59163;-86
2024/01/05 13:53:14;;;;;;;23.40;15.80;;;;;;;4.35;100.00;99182.64;183770;1231;45963;-86
2024/01/05 13:57:16;;;;;;;25.10;14.90;;;;;;;4.32;100.00;99177.93;183121;1232;45970;-86
2024/01/05 14:01:19;;;;;;;25.60;17.60;;;;;;;4.28;100.00;99175.36;183718;1231;46087;-86
2024/01/05 14:05:21;;;;;;;22.50;16.60;;;;;;;4.24;100.00;99177.08;184104;1231;46337;-86
2024/01/05 14:09:24;;;;;;;21.60;14.40;;;;;;;4.21;100.00;99188.50;183334;1235;59429;-84
2024/01/05 14:13:28;;;;;;;23.70;15.10;;;;;;;4.26;100.00;99192.73;185072;1231;45983;-86
2024/01/05 14:57:52;;;;;;;29.80;21.90;;;;;;;4.15;100.00;99178.92;185514;1234;44509;-60
2024/01/05 15:01:57;;;;;;;31.40;19.80;;;;;;;4.11;100.00;99173.45;185466;1233;58808;-59
2024/01/05 15:06:00;;;;;;;32.00;20.80;;;;;;;4.07;100.00;99174.77;185251;1233;44981;-61
2024/01/05 15:10:03;;;;;;;30.00;21.00;;;;;;;4.07;100.00;99170.74;185275;1233;43973;-63
2024/01/05 15:14:06;;;;;;;40.10;25.50;;;;;;;4.06;100.00;99183.42;185738;1234;45096;-62
2024/01/05 15:18:09;;;;;;;42.10;26.60;;;;;;;4.06;100.00;99191.20;185432;1233;46010;-61
2024/01/05 15:22:12;;;;;;;41.40;26.60;;;;;;;4.00;100.00;99187.89;185235;1234;58015;-61
2024/01/05 15:26:15;;;;;;;43.40;23.40;;;;;;;3.96;100.00;99182.63;185282;1236;43629;-61
2024/01/05 15:30:17;;;;;;;33.10;22.10;;;;;;;3.92;100.00;99175.35;185394;1234;45866;-61
2024/01/05 15:34:22;;;;;;;36.10;22.80;;;;;;;3.89;100.00;99167.66;185059;1233;46020;-60
2024/01/05 15:38:25;;;;;;;32.40;21.50;;;;;;;3.90;100.00;99176.73;185143;1234;46091;-62
2024/01/05 15:42:43;;;;;;;37.10;23.40;;;;;;;3.90;100.00;99181.24;185312;1237;58419;-61
2024/01/05 15:46:46;;;;;;;33.80;22.40;;;;;;;3.93;100.00;99176.33;185306;1234;45987;-63
2024/01/05 15:50:58;;;;;;;34.10;23.50;;;;;;;3.91;100.00;99178.92;185392;1233;44746;-63
2024/01/05 15:55:04;;;;;;;36.90;23.80;;;;;;;3.89;100.00;99174.55;185435;1233;43622;-62
2024/01/05 15:59:06;;;;;;;42.20;23.50;;;;;;;3.89;100.00;99175.21;185472;1234;46063;-62
2024/01/05 16:03:39;;;;;;;40.40;23.90;;;;;;;3.88;100.00;99174.23;185175;1236;58623;-63
2024/01/05 16:07:42;;;;;;;40.40;24.80;;;;;;;3.90;100.00;99176.02;185390;1234;46785;-62
2024/01/05 16:11:45;;;;;;;40.70;25.90;;;;;;;3.90;100.00;99171.31;185244;1234;45922;-61
2024/01/05 16:15:47;;;;;;;46.10;27.50;;;;;;;3.85;100.00;99166.15;185408;1234;46068;-62
2024/01/05 16:19:50;;;;;;;39.40;26.10;;;;;;;3.85;100.00;99169.32;185353;1234;43483;-64
2024/01/05 16:23:58;;;;;;;35.00;22.90;;;;;;;3.84;100.00;99169.05;185171;1234;59962;-62
2024/01/05 16:28:03;;;;;;;48.20;27.00;;;;;;;3.82;100.00;99167.45;185222;1234;46110;-63
2024/01/05 16:32:06;;;;;;;42.70;27.80;;;;;;;3.80;100.00;99160.89;185377;1234;44525;-62
2024/01/05 16:36:36;;;;;;;45.50;26.60;;;;;;;3.77;100.00;99157.27;185070;1233;43747;-62
2024/01/05 16:40:40;;;;;;;35.50;23.80;;;;;;;3.77;100.00;99159.55;185285;1234;45906;-63
2024/01/05 16:45:40;;;;;;;39.60;26.90;;;;;;;3.79;100.00;99159.04;185200;1234;60005;-61
2024/01/05 16:49:46;;;;;;;38.70;24.00;;;;;;;3.78;100.00;99156.02;185403;1234;44569;-61
2024/01/05 16:59:50;;;;;;;39.00;27.10;;;;;;;3.82;100.00;99141.85;174658;1285;567479;-81
2024/01/05 17:03:54;;;;;;;65.90;26.10;;;;;;;3.82;100.00;99146.23;177525;1269;59840;-82
2024/01/05 17:07:59;;;;;;;39.40;27.30;;;;;;;3.83;100.00;99150.51;177048;1272;46017;-83
2024/01/05 17:12:04;;;;;;;50.20;29.00;;;;;;;3.88;100.00;99144.78;176620;1266;306188;-82
2024/01/05 17:16:09;;;;;;;54.20;30.60;;;;;;;3.85;100.00;99142.36;177831;1259;45971;-84
2024/01/05 17:20:13;;;;;;;63.30;35.10;;;;;;;3.84;100.00;99148.20;177753;1258;45991;-83
2024/01/05 17:24:27;;;;;;;53.20;28.50;;;;;;;3.89;100.00;99155.23;178400;1259;59626;-84
2024/01/05 17:28:30;;;;;;;50.30;29.00;;;;;;;3.91;100.00;99160.67;177772;1259;45996;-83
2024/01/05 17:32:33;;;;;;;42.70;26.00;;;;;;;3.91;100.00;99160.52;177782;1259;46024;-84
2024/01/05 17:36:39;;;;;;;48.10;31.60;;;;;;;3.95;100.00;99161.11;178678;1256;45956;-83
2024/01/05 17:40:43;;;;;;;69.40;33.40;;;;;;;3.99;100.00;99166.77;177991;1257;46064;-83
2024/01/05 17:44:48;;;;;;;43.20;28.30;;;;;;;4.04;100.00;99168.20;178342;1257;58253;-83
2024/01/05 17:48:51;;;;;;;50.00;30.00;;;;;;;4.08;100.00;99168.77;178199;1257;45923;-83
2024/01/05 17:52:55;;;;;;;48.50;31.80;;;;;;;4.05;100.00;99170.41;178108;1256;44778;-83
2024/01/05 17:57:03;;;;;;;60.30;35.90;;;;;;;4.02;100.00;99170.63;178081;1256;45966;-83
2024/01/05 18:01:07;;;;;;;49.60;31.10;;;;;;;4.02;100.00;99168.88;178653;1256;45996;-83
2024/01/05 18:05:15;;;;;;;54.80;28.90;;;;;;;4.05;100.00;99171.40;177650;1256;59546;-83
2024/01/05 18:09:18;;;;;;;39.50;28.30;;;;;;;4.07;100.00;99181.11;178536;1258;45911;-82
2024/01/05 18:13:23;;;;;;;46.00;28.80;;;;;;;4.10;100.00;99181.08;178354;1257;45866;-82
2024/01/05 18:17:26;;;;;;;43.70;27.50;;;;;;;4.13;100.00;99181.35;178180;1257;46400;-82
2024/01/05 18:21:30;;;;;;;49.10;32.10;;;;;;;4.16;100.00;99181.73;178825;1256;46167;-82
2024/01/05 18:25:33;;;;;;;45.90;33.80;;;;;;;4.19;100.00;99180.07;178683;1257;58328;-82
2024/01/05 18:29:36;;;;;;;52.80;35.30;;;;;;;4.20;100.00;99180.52;178428;1256;45954;-81
2024/01/05 18:33:39;;;;;;;44.20;31.90;;;;;;;4.26;100.00;99179.05;178519;1257;46076;-83
2024/01/05 18:37:44;;;;;;;53.00;30.80;;;;;;;4.29;100.00;99180.07;177948;1256;46006;-82
2024/01/05 18:41:48;;;;;;;48.70;31.90;;;;;;;4.34;100.00;99182.34;177865;1260;46061;-84
2024/01/05 18:45:51;;;;;;;48.50;28.90;;;;;;;4.37;100.00;99177.69;177752;1257;57794;-83
2024/01/05 18:49:54;;;;;;;50.20;32.10;;;;;;;4.39;100.00;99175.95;178205;1256;45978;-81
2024/01/05 18:53:59;;;;;;;40.50;27.60;;;;;;;4.44;100.00;99176.50;177737;1256;46104;-82
2024/01/05 18:58:02;;;;;;;42.60;27.70;;;;;;;4.46;100.00;99177.44;177812;1256;46166;-83
2024/01/05 19:02:07;;;;;;;55.40;32.50;;;;;;;4.50;100.00;99186.61;177965;1254;45981;-82
2024/01/05 19:06:17;;;;;;;66.10;36.60;;;;;;;4.51;100.00;99185.67;178669;1253;58489;-83
2024/01/05 19:10:20;;;;;;;59.90;35.90;;;;;;;4.51;100.00;99176.48;178174;1253;46102;-84
2024/01/05 19:14:24;;;;;;;44.10;28.30;;;;;;;4.51;100.00;99172.99;178542;1256;46111;-85
2024/01/05 19:18:28;;;;;;;71.30;39.50;;;;;;;4.50;100.00;99168.30;177948;1253;46839;-84
2024/01/05 19:22:36;;;;;;;72.70;46.00;;;;;;;4.51;100.00;99163.48;178065;1254;46067;-85
2024/01/05 19:26:42;;;;;;;85.70;49.70;;;;;;;4.54;100.00;99164.56;178519;1255;59039;-85
2024/01/05 19:30:46;;;;;;;45.90;29.70;;;;;;;4.50;100.00;99155.84;178425;1254;46102;-84
2024/01/05 19:34:53;;;;;;;46.60;32.10;;;;;;;4.48;100.00;99152.85;178289;1253;45949;-83